createdAt,value
2022-08-26T00:01:51.331Z,13.20
2022-08-26T00:04:18.788Z,9.85
2022-08-26T00:06:46.542Z,11.30
2022-08-26T00:09:16.147Z,13.10
2022-08-26T00:11:43.585Z,12.85
2022-08-26T00:14:10.948Z,13.52
2022-08-26T00:16:41.037Z,11.63
2022-08-26T00:19:14.708Z,13.07
2022-08-26T00:21:41.937Z,17.05
2022-08-26T00:24:09.297Z,10.13
2022-08-26T00:26:37.222Z,12.15
2022-08-26T00:29:04.479Z,15.75
2022-08-26T00:31:32.765Z,10.07
2022-08-26T00:34:00.479Z,10.00
2022-08-26T00:36:29.549Z,12.60
2022-08-26T00:38:57.118Z,12.35
2022-08-26T00:41:24.463Z,12.60
2022-08-26T00:43:52.087Z,14.07
2022-08-26T00:46:21.714Z,11.23
2022-08-26T00:48:52.625Z,12.23
2022-08-26T00:51:21.865Z,14.13
2022-08-26T00:53:56.030Z,9.70
2022-08-26T00:56:26.669Z,12.82
2022-08-26T00:58:54.892Z,11.85
2022-08-26T01:01:23.135Z,12.48
2022-08-26T01:03:50.598Z,17.92
2022-08-26T01:06:17.845Z,12.15
2022-08-26T01:08:45.674Z,12.07
2022-08-26T01:11:13.190Z,13.45
2022-08-26T01:13:41.015Z,11.85
2022-08-26T01:16:09.456Z,10.45
2022-08-26T01:18:37.286Z,10.43
2022-08-26T01:21:23.116Z,10.00
2022-08-26T01:23:57.364Z,13.05
2022-08-26T01:26:31.557Z,11.88
2022-08-26T01:29:00.936Z,11.75
2022-08-26T01:31:30.144Z,12.68
2022-08-26T01:34:04.894Z,12.38
2022-08-26T01:36:32.053Z,12.00
2022-08-26T01:38:59.299Z,9.98
2022-08-26T01:41:29.243Z,12.02
2022-08-26T01:43:57.881Z,12.35
2022-08-26T01:46:26.782Z,13.68
2022-08-26T01:48:55.406Z,14.60
2022-08-26T01:51:24.308Z,13.85
2022-08-26T01:53:51.516Z,15.48
2022-08-26T01:56:19.890Z,16.55
2022-08-26T01:58:51.224Z,14.13
2022-08-26T02:04:09.075Z,12.88
2022-08-26T02:06:37.186Z,13.43
2022-08-26T02:09:04.924Z,14.45
2022-08-26T02:11:32.670Z,15.50
2022-08-26T02:14:02.789Z,12.15
2022-08-26T02:16:33.450Z,14.38
2022-08-26T02:19:02.386Z,11.15
2022-08-26T02:21:31.161Z,11.27
2022-08-26T02:24:08.237Z,11.27
2022-08-26T02:26:36.059Z,9.90
2022-08-26T02:29:06.147Z,15.50
2022-08-26T02:31:34.952Z,13.35
2022-08-26T02:34:15.661Z,11.50
2022-08-26T02:39:11.053Z,11.43
2022-08-26T02:41:45.025Z,10.40
2022-08-26T02:44:12.610Z,11.70
2022-08-26T02:46:39.927Z,12.02
2022-08-26T02:49:07.426Z,10.27
2022-08-26T02:51:34.737Z,12.15
2022-08-26T02:54:01.937Z,12.30
2022-08-26T02:56:29.371Z,10.52
2022-08-26T02:58:56.805Z,10.25
2022-08-26T03:01:29.910Z,18.38
2022-08-26T03:03:57.793Z,12.80
2022-08-26T03:06:25.076Z,15.10
2022-08-26T03:08:52.670Z,13.23
2022-08-26T03:11:20.056Z,11.63
2022-08-26T03:13:47.189Z,11.98
2022-08-26T03:16:15.056Z,10.73
2022-08-26T03:18:43.179Z,13.02
2022-08-26T03:21:19.971Z,14.93
2022-08-26T03:23:47.461Z,14.00
2022-08-26T03:26:15.687Z,12.68
2022-08-26T03:29:02.355Z,12.82
2022-08-26T03:31:31.170Z,17.98
2022-08-26T03:33:59.762Z,13.07
2022-08-26T03:36:27.649Z,11.75
2022-08-26T03:38:54.809Z,9.93
2022-08-26T03:41:22.061Z,14.00
2022-08-26T03:43:51.069Z,16.92
2022-08-26T03:46:19.290Z,16.80
2022-08-26T03:48:46.745Z,15.55
2022-08-26T03:51:18.047Z,12.35
2022-08-26T03:53:46.012Z,13.75
2022-08-26T03:56:13.312Z,12.88
2022-08-26T03:58:42.896Z,13.77
2022-08-26T04:01:10.201Z,12.25
2022-08-26T04:03:56.136Z,12.02
2022-08-26T04:06:36.798Z,12.05
2022-08-26T04:09:09.024Z,13.43
2022-08-26T04:11:39.350Z,13.93
2022-08-26T04:14:08.526Z,8.80
2022-08-26T04:16:35.819Z,12.82
2022-08-26T04:19:03.449Z,12.88
2022-08-26T04:21:30.660Z,15.57
2022-08-26T04:23:58.275Z,13.20
2022-08-26T04:26:26.336Z,15.27
2022-08-26T04:28:54.573Z,13.18
2022-08-26T04:31:22.236Z,15.60
2022-08-26T04:33:50.780Z,14.85
2022-08-26T04:36:19.777Z,13.80
2022-08-26T04:38:48.064Z,10.75
2022-08-26T04:41:16.796Z,11.50
2022-08-26T04:43:44.432Z,12.27
2022-08-26T04:46:13.000Z,13.27
2022-08-26T04:48:41.395Z,12.38
2022-08-26T04:51:09.854Z,13.63
2022-08-26T04:53:37.731Z,13.63
2022-08-26T04:56:05.217Z,13.45
2022-08-26T04:58:32.406Z,13.02
2022-08-26T05:01:00.339Z,13.75
2022-08-26T05:03:30.326Z,10.60
2022-08-26T05:05:58.238Z,13.15
2022-08-26T05:08:25.589Z,12.38
2022-08-26T05:10:56.551Z,12.70
2022-08-26T05:13:25.492Z,12.70
2022-08-26T05:15:52.915Z,10.43
2022-08-26T05:18:22.731Z,12.35
2022-08-26T05:20:51.671Z,16.10
2022-08-26T05:23:22.953Z,10.13
2022-08-26T05:25:53.643Z,12.07
2022-08-26T05:28:23.324Z,13.65
2022-08-26T05:30:50.810Z,16.67
2022-08-26T05:33:19.243Z,16.25
2022-08-26T05:35:46.983Z,21.27
2022-08-26T05:38:16.997Z,12.10
2022-08-26T05:40:45.570Z,15.50
2022-08-26T05:43:13.599Z,16.45
2022-08-26T05:45:46.299Z,14.88
2022-08-26T05:48:14.540Z,11.93
2022-08-26T05:50:43.528Z,13.48
2022-08-26T05:53:11.377Z,12.45
2022-08-26T05:55:44.141Z,11.75
2022-08-26T05:58:12.057Z,15.23
2022-08-26T06:00:39.687Z,14.07
2022-08-26T06:03:09.317Z,11.03
2022-08-26T06:05:40.038Z,13.40
2022-08-26T06:08:14.480Z,14.25
2022-08-26T06:11:04.732Z,17.30
2022-08-26T06:13:34.022Z,9.68
2022-08-26T06:16:03.897Z,13.45
2022-08-26T06:18:35.513Z,12.55
2022-08-26T06:21:17.028Z,13.88
2022-08-26T06:24:03.708Z,13.32
2022-08-26T06:26:31.267Z,13.13
2022-08-26T06:28:58.844Z,12.90
2022-08-26T06:31:26.884Z,11.38
2022-08-26T06:33:55.250Z,14.32
2022-08-26T06:36:24.088Z,11.60
2022-08-26T06:38:52.151Z,15.02
2022-08-26T06:41:23.521Z,11.32
2022-08-26T06:43:51.087Z,14.90
2022-08-26T06:46:19.838Z,13.90
2022-08-26T06:48:47.673Z,16.95
2022-08-26T06:51:19.315Z,13.60
2022-08-26T06:53:50.584Z,13.45
2022-08-26T06:56:20.752Z,13.03
2022-08-26T06:58:48.978Z,13.75
2022-08-26T07:01:17.003Z,13.10
2022-08-26T07:03:46.600Z,13.18
2022-08-26T07:06:14.285Z,15.00
2022-08-26T07:08:41.654Z,11.02
2022-08-26T07:11:10.175Z,16.05
2022-08-26T07:13:38.084Z,14.43
2022-08-26T07:16:09.024Z,11.57
2022-08-26T07:18:37.489Z,17.25
2022-08-26T07:21:08.577Z,10.88
2022-08-26T07:23:35.913Z,14.32
2022-08-26T07:26:07.372Z,14.05
2022-08-26T07:28:35.303Z,16.55
2022-08-26T07:31:10.147Z,11.30
2022-08-26T07:33:37.889Z,14.80
2022-08-26T07:36:07.326Z,15.87
2022-08-26T07:38:35.018Z,9.75
2022-08-26T07:41:02.199Z,11.40
2022-08-26T07:43:30.054Z,19.42
2022-08-26T07:45:57.785Z,14.35
2022-08-26T07:48:25.359Z,8.90
2022-08-26T07:50:53.761Z,12.27
2022-08-26T07:53:21.846Z,14.30
2022-08-26T07:55:51.753Z,14.60
2022-08-26T07:58:19.278Z,14.93
2022-08-26T08:00:47.603Z,15.65
2022-08-26T08:03:15.500Z,22.08
2022-08-26T08:05:44.355Z,14.70
2022-08-26T08:10:53.613Z,13.45
2022-08-26T08:13:20.914Z,15.18
2022-08-26T08:15:48.065Z,15.30
2022-08-26T08:18:17.625Z,14.80
2022-08-26T08:20:59.478Z,16.48
2022-08-26T08:23:35.534Z,12.82
2022-08-26T08:26:03.499Z,13.15
2022-08-26T08:28:30.924Z,12.57
2022-08-26T08:30:58.245Z,11.32
2022-08-26T08:33:26.696Z,10.75
2022-08-26T08:35:55.027Z,14.75
2022-08-26T08:38:22.233Z,11.60
2022-08-26T08:40:49.873Z,10.85
2022-08-26T08:43:30.513Z,14.85
2022-08-26T08:46:01.297Z,11.27
2022-08-26T08:48:34.039Z,12.05
2022-08-26T08:53:28.393Z,12.60
2022-08-26T08:55:58.744Z,10.95
2022-08-26T08:58:32.387Z,10.85
2022-08-26T09:01:02.988Z,11.57
2022-08-26T09:03:37.735Z,10.38
2022-08-26T09:06:16.927Z,10.00
2022-08-26T09:08:45.528Z,10.38
2022-08-26T09:11:13.769Z,9.43
2022-08-26T09:13:44.728Z,10.55
2022-08-26T09:16:16.334Z,12.15
2022-08-26T09:18:49.267Z,8.73
2022-08-26T09:21:18.035Z,10.32
2022-08-26T09:23:49.285Z,10.20
2022-08-26T09:26:16.867Z,10.38
2022-08-26T09:28:48.798Z,11.10
2022-08-26T09:31:21.077Z,9.57
2022-08-26T09:33:48.776Z,9.73
2022-08-26T09:36:26.252Z,8.13
2022-08-26T09:38:55.157Z,6.93
2022-08-26T09:41:27.007Z,12.40
2022-08-26T09:44:15.629Z,7.95
2022-08-26T09:46:54.994Z,9.60
2022-08-26T09:49:25.129Z,6.53
2022-08-26T09:52:04.711Z,13.10
2022-08-26T09:54:33.571Z,11.90
2022-08-26T09:57:19.110Z,11.05
2022-08-26T09:59:46.716Z,7.18
2022-08-26T10:02:35.251Z,9.30
2022-08-26T10:05:09.261Z,12.00
2022-08-26T10:07:48.814Z,10.48
2022-08-26T10:10:25.862Z,6.60
2022-08-26T10:12:56.744Z,7.35
2022-08-26T10:15:27.197Z,6.20
2022-08-26T10:18:17.499Z,7.35
2022-08-26T10:21:14.673Z,4.30
2022-08-26T10:23:50.199Z,6.85
2022-08-26T10:26:28.461Z,5.97
2022-08-26T10:29:06.287Z,6.40
2022-08-26T10:31:40.957Z,13.93
2022-08-26T10:34:09.441Z,5.10
2022-08-26T10:37:14.724Z,5.70
2022-08-26T10:39:42.796Z,5.30
2022-08-26T10:42:28.799Z,6.90
2022-08-26T10:44:58.678Z,5.15
2022-08-26T10:47:29.118Z,7.70
2022-08-26T10:50:03.016Z,3.90
2022-08-26T10:52:42.858Z,6.80
2022-08-26T10:55:17.487Z,4.47
2022-08-26T10:57:51.019Z,3.35
2022-08-26T11:00:43.888Z,9.07
2022-08-26T11:03:21.991Z,3.70
2022-08-26T11:06:10.257Z,7.22
2022-08-26T11:08:45.929Z,5.95
2022-08-26T11:11:13.081Z,9.57
2022-08-26T11:14:00.289Z,6.60
2022-08-26T11:16:44.957Z,7.45
2022-08-26T11:19:50.532Z,7.85
2022-08-26T11:22:26.016Z,9.13
2022-08-26T11:24:53.493Z,9.68
2022-08-26T11:27:26.401Z,8.25
2022-08-26T11:29:56.437Z,4.75
2022-08-26T11:32:46.748Z,8.45
2022-08-26T11:35:21.945Z,8.45
2022-08-26T11:37:49.076Z,9.00
2022-08-26T11:40:25.731Z,7.70
2022-08-26T11:42:55.857Z,10.35
2022-08-26T11:45:34.716Z,6.38
2022-08-26T11:48:16.891Z,9.75
2022-08-26T11:50:54.545Z,13.18
2022-08-26T11:53:22.890Z,6.15
2022-08-26T11:55:51.170Z,8.02
2022-08-26T11:58:21.543Z,9.43
2022-08-26T12:00:51.950Z,8.57
2022-08-26T12:03:21.643Z,9.05
2022-08-26T12:05:52.078Z,8.27
2022-08-26T12:08:21.733Z,9.38
2022-08-26T12:10:49.068Z,9.10
2022-08-26T12:13:22.252Z,5.65
2022-08-26T12:15:55.643Z,5.75
2022-08-26T12:18:29.188Z,6.35
2022-08-26T12:20:58.699Z,5.30
2022-08-26T12:23:37.630Z,6.35
2022-08-26T12:26:08.902Z,5.20
2022-08-26T12:28:48.387Z,6.97
2022-08-26T12:31:22.465Z,8.73
2022-08-26T12:33:49.984Z,6.18
2022-08-26T12:36:22.513Z,5.97
2022-08-26T12:38:50.068Z,8.25
2022-08-26T12:41:35.773Z,8.15
2022-08-26T12:44:03.203Z,4.60
2022-08-26T12:46:30.571Z,10.10
2022-08-26T12:49:01.275Z,5.88
2022-08-26T12:51:30.224Z,7.28
2022-08-26T12:53:58.118Z,8.07
2022-08-26T12:56:25.553Z,7.40
2022-08-26T12:59:25.412Z,6.43
2022-08-26T13:01:53.606Z,6.60
2022-08-26T13:04:38.649Z,7.63
2022-08-26T13:07:14.993Z,8.38
2022-08-26T13:09:42.345Z,7.25
2022-08-26T13:12:11.685Z,6.07
2022-08-26T13:14:40.505Z,6.20
2022-08-26T13:17:07.960Z,5.68
2022-08-26T13:19:35.808Z,8.73
2022-08-26T13:22:03.938Z,4.55
2022-08-26T13:24:34.383Z,6.10
2022-08-26T13:27:01.903Z,8.07
2022-08-26T13:29:29.179Z,8.68
2022-08-26T13:31:58.813Z,10.77
2022-08-26T13:34:26.191Z,8.20
2022-08-26T13:36:54.451Z,7.30
2022-08-26T13:39:22.145Z,9.73
2022-08-26T13:41:49.436Z,6.78
2022-08-26T13:44:16.631Z,7.40
2022-08-26T13:49:16.122Z,4.50
2022-08-26T13:51:43.324Z,5.18
2022-08-26T13:54:10.574Z,8.15
2022-08-26T13:56:37.754Z,8.73
2022-08-26T13:59:06.449Z,7.03
2022-08-26T14:01:34.570Z,5.85
2022-08-26T14:04:02.939Z,4.75
2022-08-26T14:06:30.479Z,4.75
2022-08-26T14:08:58.244Z,7.78
2022-08-26T14:11:25.513Z,7.32
2022-08-26T14:13:52.786Z,9.35
2022-08-26T14:16:58.633Z,4.03
2022-08-26T14:19:27.807Z,10.38
2022-08-26T14:21:55.112Z,7.63
2022-08-26T14:24:22.457Z,5.70
2022-08-26T14:26:49.921Z,11.07
2022-08-26T14:29:17.304Z,5.93
2022-08-26T14:31:44.771Z,5.22
2022-08-26T14:34:13.789Z,6.90
2022-08-26T14:36:41.182Z,7.03
2022-08-26T14:39:10.475Z,10.10
2022-08-26T14:41:42.127Z,5.70
2022-08-26T14:44:12.163Z,5.15
2022-08-26T14:47:00.772Z,5.35
2022-08-26T14:49:28.196Z,4.55
2022-08-26T14:51:55.521Z,9.23
2022-08-26T14:54:23.124Z,6.18
2022-08-26T14:56:55.365Z,8.70
2022-08-26T14:59:24.201Z,6.80
2022-08-26T15:01:52.007Z,8.05
2022-08-26T15:04:19.696Z,5.10
2022-08-26T15:06:47.454Z,6.95
2022-08-26T15:09:14.996Z,8.02
2022-08-26T15:11:42.448Z,7.80
2022-08-26T15:14:14.778Z,10.60
2022-08-26T15:16:51.896Z,7.72
2022-08-26T15:19:19.615Z,6.95
2022-08-26T15:21:47.317Z,9.18
2022-08-26T15:24:15.037Z,7.45
2022-08-26T15:26:42.340Z,6.57
2022-08-26T15:29:09.684Z,7.22
2022-08-26T15:31:36.994Z,6.93
2022-08-26T15:34:06.836Z,8.05
2022-08-26T15:36:35.520Z,7.88
2022-08-26T15:39:02.747Z,7.35
2022-08-26T15:41:30.053Z,6.88
2022-08-26T15:44:03.512Z,7.95
2022-08-26T15:46:31.810Z,7.68
2022-08-26T15:48:59.108Z,7.05
2022-08-26T15:51:27.739Z,9.85
2022-08-26T15:53:58.662Z,9.65
2022-08-26T15:56:27.548Z,9.10
2022-08-26T15:58:56.211Z,4.95
2022-08-26T16:01:27.608Z,9.65
2022-08-26T16:03:55.347Z,5.20
2022-08-26T16:06:24.490Z,5.95
2022-08-26T16:08:51.840Z,8.65
2022-08-26T16:11:19.872Z,7.22
2022-08-26T16:13:47.983Z,6.57
2022-08-26T16:16:15.877Z,7.28
2022-08-26T16:18:43.371Z,9.07
2022-08-26T16:21:16.146Z,10.13
2022-08-26T16:23:44.963Z,8.43
2022-08-26T16:26:14.060Z,8.40
2022-08-26T16:28:41.438Z,9.88
2022-08-26T16:31:11.046Z,8.60
2022-08-26T16:33:38.270Z,7.22
2022-08-26T16:36:06.668Z,9.38
2022-08-26T16:38:34.261Z,8.80
2022-08-26T16:41:01.637Z,7.40
2022-08-26T16:43:28.915Z,9.13
2022-08-26T16:45:56.520Z,11.13
2022-08-26T16:48:23.827Z,7.05
2022-08-26T16:50:51.555Z,8.38
2022-08-26T16:53:19.114Z,9.18
2022-08-26T16:55:50.232Z,12.43
2022-08-26T16:58:18.111Z,6.78
2022-08-26T17:00:45.398Z,6.82
2022-08-26T17:03:12.704Z,7.97
2022-08-26T17:05:40.477Z,9.93
2022-08-26T17:08:07.860Z,8.00
2022-08-26T17:10:35.467Z,7.80
2022-08-26T17:13:03.181Z,10.52
2022-08-26T17:15:30.510Z,13.27
2022-08-26T17:17:57.775Z,8.10
2022-08-26T17:20:25.628Z,8.07
2022-08-26T17:22:53.885Z,13.38
2022-08-26T17:25:23.780Z,10.57
2022-08-26T17:27:54.339Z,9.68
2022-08-26T17:32:49.025Z,8.68
2022-08-26T17:35:16.962Z,11.48
2022-08-26T17:37:44.351Z,8.27
2022-08-26T17:40:13.289Z,7.95
2022-08-26T17:42:41.381Z,10.00
2022-08-26T17:45:09.287Z,7.85
2022-08-26T17:47:36.643Z,12.45
2022-08-26T17:50:05.590Z,8.93
2022-08-26T17:52:32.946Z,12.57
2022-08-26T17:55:00.145Z,10.02
2022-08-26T17:57:27.817Z,8.63
2022-08-26T17:59:56.568Z,11.45
2022-08-26T18:02:24.419Z,8.13
2022-08-26T18:04:51.745Z,9.95
2022-08-26T18:07:18.967Z,10.10
2022-08-26T18:09:46.193Z,14.00
2022-08-26T18:12:13.454Z,8.95
2022-08-26T18:14:40.659Z,11.48
2022-08-26T18:17:07.833Z,11.18
2022-08-26T18:19:35.381Z,12.00
2022-08-26T18:22:02.554Z,10.65
2022-08-26T18:24:32.121Z,10.43
2022-08-26T18:26:59.438Z,14.02
2022-08-26T18:29:27.890Z,13.52
2022-08-26T18:31:55.064Z,11.75
2022-08-26T18:34:22.578Z,13.52
2022-08-26T18:36:52.288Z,14.85
2022-08-26T18:39:19.520Z,15.38
2022-08-26T18:41:53.127Z,13.85
2022-08-26T18:44:24.137Z,15.68
2022-08-26T18:46:52.211Z,11.93
2022-08-26T18:49:20.597Z,11.45
2022-08-26T18:51:50.558Z,13.57
2022-08-26T18:56:49.989Z,18.33
2022-08-26T18:59:17.492Z,15.05
2022-08-26T19:01:45.390Z,16.02
2022-08-26T19:04:15.528Z,18.25
2022-08-26T19:06:43.402Z,18.02
2022-08-26T19:09:12.009Z,20.17
2022-08-26T19:11:43.170Z,21.38
2022-08-26T19:14:13.511Z,19.17
2022-08-26T19:16:41.712Z,19.25
2022-08-26T19:19:09.032Z,25.75
2022-08-26T19:21:37.106Z,18.77
2022-08-26T19:24:07.158Z,20.02
2022-08-26T19:26:34.503Z,21.23
2022-08-26T19:29:01.733Z,18.67
2022-08-26T19:31:29.086Z,17.85
2022-08-26T19:33:58.160Z,16.02
2022-08-26T19:36:25.550Z,15.13
2022-08-26T19:38:53.210Z,15.82
2022-08-26T19:41:24.567Z,14.27
2022-08-26T19:43:58.630Z,14.88
2022-08-26T19:46:26.807Z,16.67
2022-08-26T19:48:55.761Z,17.38
2022-08-26T19:51:24.623Z,14.90
2022-08-26T19:53:52.603Z,13.70
2022-08-26T19:56:20.425Z,14.60
2022-08-26T19:58:47.992Z,15.93
2022-08-26T20:01:15.956Z,15.60
2022-08-26T20:03:43.766Z,15.20
2022-08-26T20:06:11.577Z,13.82
2022-08-26T20:08:39.644Z,14.32
2022-08-26T20:11:09.085Z,13.25
2022-08-26T20:13:36.811Z,14.68
2022-08-26T20:16:04.403Z,15.18
2022-08-26T20:18:50.261Z,12.63
2022-08-26T20:21:26.866Z,15.02
2022-08-26T20:23:55.615Z,14.50
2022-08-26T20:26:23.093Z,14.68
2022-08-26T20:28:51.036Z,12.80
2022-08-26T20:31:19.407Z,11.70
2022-08-26T20:33:47.459Z,15.60
2022-08-26T20:36:15.477Z,15.43
2022-08-26T20:38:42.888Z,10.30
2022-08-26T20:41:10.525Z,15.88
2022-08-26T20:43:37.880Z,13.25
2022-08-26T20:46:12.687Z,15.80
2022-08-26T20:48:46.104Z,12.98
2022-08-26T20:51:13.314Z,11.43
2022-08-26T20:53:41.334Z,15.02
2022-08-26T20:56:09.662Z,12.48
2022-08-26T20:58:37.084Z,13.85
2022-08-26T21:01:08.043Z,12.15
2022-08-26T21:03:36.507Z,11.75
2022-08-26T21:06:03.922Z,14.60
2022-08-26T21:08:33.228Z,11.70
2022-08-26T21:11:02.013Z,16.02
2022-08-26T21:13:42.757Z,15.23
2022-08-26T21:16:16.070Z,17.67
2022-08-26T21:18:43.405Z,13.57
2022-08-26T21:21:10.849Z,10.77
2022-08-26T21:23:38.672Z,14.13
2022-08-26T21:26:13.070Z,13.38
2022-08-26T21:28:41.899Z,17.90
2022-08-26T21:31:10.629Z,14.80
2022-08-26T21:33:38.396Z,11.55
2022-08-26T21:36:06.432Z,11.65
2022-08-26T21:38:33.911Z,14.35
2022-08-26T21:41:02.464Z,12.93
2022-08-26T21:43:35.572Z,11.77
2022-08-26T21:46:14.563Z,16.10
2022-08-26T21:48:50.038Z,11.88
2022-08-26T21:51:19.421Z,11.20
2022-08-26T21:53:46.968Z,13.48
2022-08-26T21:56:15.379Z,13.32
2022-08-26T21:58:42.636Z,13.23
2022-08-26T22:01:11.198Z,13.60
2022-08-26T22:03:47.642Z,14.38
2022-08-26T22:06:16.850Z,12.77
2022-08-26T22:08:44.417Z,11.27
2022-08-26T22:11:11.981Z,12.38
2022-08-26T22:13:40.709Z,15.55
2022-08-26T22:16:08.189Z,10.85
2022-08-26T22:18:36.493Z,13.23
2022-08-26T22:21:05.672Z,11.40
2022-08-26T22:23:32.988Z,11.07
2022-08-26T22:26:00.225Z,12.13
2022-08-26T22:28:28.294Z,12.38
2022-08-26T22:30:55.930Z,10.70
2022-08-26T22:33:23.139Z,13.27
2022-08-26T22:35:51.210Z,9.98
2022-08-26T22:38:18.506Z,12.07
2022-08-26T22:40:47.264Z,12.32
2022-08-26T22:43:15.103Z,12.70
2022-08-26T22:45:43.331Z,15.38
2022-08-26T22:48:10.810Z,12.98
2022-08-26T22:50:38.472Z,12.85
2022-08-26T22:53:05.673Z,13.45
2022-08-26T22:55:32.994Z,16.70
2022-08-26T22:58:00.288Z,12.27
2022-08-26T23:00:32.235Z,14.38
2022-08-26T23:03:00.157Z,11.38
2022-08-26T23:05:27.581Z,11.40
2022-08-26T23:07:56.259Z,13.77
2022-08-26T23:10:23.824Z,16.48
2022-08-26T23:12:53.388Z,11.40
2022-08-26T23:15:21.045Z,14.93
2022-08-26T23:17:48.569Z,13.20
2022-08-26T23:20:26.468Z,15.02
2022-08-26T23:22:53.743Z,14.02
2022-08-26T23:25:21.171Z,13.73
2022-08-26T23:27:48.725Z,12.05
2022-08-26T23:30:17.660Z,12.10
2022-08-26T23:32:44.901Z,13.73
2022-08-26T23:35:14.203Z,14.23
2022-08-26T23:37:43.756Z,16.60
2022-08-26T23:40:13.012Z,12.70
2022-08-26T23:42:40.427Z,12.93
2022-08-26T23:45:08.405Z,12.38
2022-08-26T23:47:35.804Z,15.98
2022-08-26T23:50:03.009Z,16.40
2022-08-26T23:52:48.791Z,12.50
2022-08-26T23:55:16.362Z,14.27
2022-08-26T23:57:43.622Z,11.75
